Time;durP1;ratioP1;P1;durP2;ratioP2;P2;SDS_P1;SDS_P2;PMS_P1;PMS_P2;Temp;Humidity;BMP_temperature;BMP_pressure;BME280_temperature;BME280_humidity;BME280_pressure;Samples;Min_cycle;Max_cycle;Signal;HPM_P1;HPM_P2
2021/09/22 00:01:47;;;;;;;18.00;14.63;;;;;;;13.12;79.25;102966.22;5016828;28;20042;-42
2021/09/22 00:04:12;;;;;;;18.08;13.45;;;;;;;13.13;79.44;102958.94;5034484;28;20439;-41
2021/09/22 00:06:38;;;;;;;18.25;13.80;;;;;;;13.11;79.57;102958.25;5034320;28;20032;-41
2021/09/22 00:09:03;;;;;;;19.75;14.65;;;;;;;13.10;79.60;102962.78;5018416;28;20025;-42
2021/09/22 00:11:28;;;;;;;17.33;13.77;;;;;;;13.08;79.48;102961.25;5021511;28;20034;-41
2021/09/22 00:13:54;;;;;;;17.48;13.68;;;;;;;13.06;79.64;102960.53;5014701;28;20063;-41
2021/09/22 00:16:19;;;;;;;17.70;13.55;;;;;;;13.05;79.22;102958.84;5014612;28;20346;-41
2021/09/22 00:18:44;;;;;;;18.10;13.40;;;;;;;13.00;79.53;102958.41;5030441;28;20029;-42
2021/09/22 00:21:10;;;;;;;15.48;12.68;;;;;;;12.98;79.44;102963.13;5034296;28;20028;-41
2021/09/22 00:23:37;;;;;;;19.55;13.95;;;;;;;12.95;79.56;102962.44;5034260;28;20033;-41
2021/09/22 00:26:02;;;;;;;19.27;14.27;;;;;;;12.94;79.67;102963.41;5022904;28;20062;-41
2021/09/22 00:28:27;;;;;;;18.92;13.88;;;;;;;12.91;79.35;102971.81;5022671;28;20129;-42
2021/09/22 00:30:54;;;;;;;21.20;14.77;;;;;;;12.89;79.10;102963.00;5015240;28;20495;-42
2021/09/22 00:33:19;;;;;;;21.02;14.40;;;;;;;12.85;79.68;102964.28;5027974;28;20108;-41
2021/09/22 00:35:44;;;;;;;17.85;14.68;;;;;;;12.85;79.70;102963.41;5033909;28;20124;-42
2021/09/22 00:38:10;;;;;;;19.50;14.60;;;;;;;12.85;79.87;102952.59;5021407;28;20044;-41
2021/09/22 00:40:36;;;;;;;19.02;15.00;;;;;;;12.84;79.69;102951.75;5014043;28;20073;-39
2021/09/22 00:43:02;;;;;;;17.75;14.30;;;;;;;12.83;79.74;102950.06;5026260;28;20037;-43
2021/09/22 00:45:29;;;;;;;19.20;14.93;;;;;;;12.81;79.78;102949.34;5033521;28;20022;-42
2021/09/22 00:47:55;;;;;;;20.73;15.43;;;;;;;12.78;79.78;102955.06;5024942;28;20441;-42
2021/09/22 00:50:20;;;;;;;19.00;15.65;;;;;;;12.78;79.62;102946.94;5013743;28;20036;-41
2021/09/22 00:52:45;;;;;;;20.52;15.63;;;;;;;12.76;79.50;102946.22;5013675;28;20022;-40
2021/09/22 00:55:12;;;;;;;19.13;15.05;;;;;;;12.76;79.88;102948.94;5013753;28;20030;-40
2021/09/22 00:57:49;;;;;;;18.95;15.05;;;;;;;12.73;79.94;102957.34;5019081;28;20022;-42
2021/09/22 01:00:15;;;;;;;26.65;19.35;;;;;;;12.74;81.49;102950.94;5014675;28;20498;-41
2021/09/22 01:02:40;;;;;;;21.92;16.80;;;;;;;12.77;80.49;102961.47;5030554;28;20021;-41
2021/09/22 01:05:06;;;;;;;21.02;16.20;;;;;;;12.77;80.25;102956.06;5031863;28;20468;-41
2021/09/22 01:07:31;;;;;;;22.30;17.25;;;;;;;12.77;80.46;102956.06;5024162;28;20073;-41
2021/09/22 01:09:56;;;;;;;22.45;16.50;;;;;;;12.77;80.38;102956.06;5012587;28;20391;-41
2021/09/22 01:12:22;;;;;;;24.75;17.85;;;;;;;12.73;80.56;102943.81;5020160;28;20029;-41
2021/09/22 01:14:47;;;;;;;22.92;17.92;;;;;;;12.70;80.84;102944.13;5030158;28;20034;-41
2021/09/22 01:17:18;;;;;;;21.25;16.83;;;;;;;12.66;80.35;102937.28;5020347;28;20017;-40
2021/09/22 01:19:44;;;;;;;23.02;16.75;;;;;;;12.63;80.32;102943.84;5033189;28;20128;-41
2021/09/22 01:22:09;;;;;;;20.50;16.88;;;;;;;12.60;80.46;102935.19;5033134;28;20098;-41
2021/09/22 01:24:34;;;;;;;21.45;16.70;;;;;;;12.56;80.34;102934.63;5022690;28;20473;-41
2021/09/22 01:27:00;;;;;;;22.63;16.27;;;;;;;12.56;80.38;102944.53;5015619;28;20519;-41
2021/09/22 01:29:25;;;;;;;21.75;17.08;;;;;;;12.56;80.42;102936.44;5032866;28;20052;-41
2021/09/22 01:31:50;;;;;;;22.17;17.52;;;;;;;12.54;80.49;102939.31;5031237;28;20064;-41
2021/09/22 01:34:16;;;;;;;22.70;17.95;;;;;;;12.55;80.51;102940.16;5032338;28;20133;-41
2021/09/22 01:36:42;;;;;;;21.73;17.08;;;;;;;12.56;80.85;102945.44;5019405;28;20423;-41
2021/09/22 01:39:07;;;;;;;27.05;18.52;;;;;;;12.57;81.10;102939.00;5032743;28;20022;-41
2021/09/22 01:41:32;;;;;;;25.02;18.08;;;;;;;12.57;81.06;102935.47;5032860;28;20492;-41
2021/09/22 01:43:59;;;;;;;24.40;18.52;;;;;;;12.57;80.89;102933.63;5032641;28;20029;-40
2021/09/22 01:46:24;;;;;;;26.70;17.88;;;;;;;12.54;81.04;102935.75;5031136;28;20022;-41
2021/09/22 01:48:50;;;;;;;23.45;18.63;;;;;;;12.52;80.68;102931.34;5015087;28;20393;-41
2021/09/22 01:51:15;;;;;;;22.52;17.25;;;;;;;12.50;80.62;102933.31;5013825;28;20112;-41
2021/09/22 01:53:40;;;;;;;21.50;16.58;;;;;;;12.48;80.64;102929.94;4995187;28;20591;-41
2021/09/22 01:56:06;;;;;;;21.35;17.73;;;;;;;12.48;80.67;102937.16;5012687;28;20080;-41
2021/09/22 01:58:32;;;;;;;23.42;18.17;;;;;;;12.46;80.91;102937.31;5030755;28;20109;-41
2021/09/22 02:01:04;;;;;;;22.83;17.63;;;;;;;12.48;80.96;102943.44;5030823;28;20036;-41
2021/09/22 02:03:30;;;;;;;25.33;17.33;;;;;;;12.47;80.94;102939.00;5032434;28;20029;-42
2021/09/22 02:05:56;;;;;;;22.95;17.88;;;;;;;12.48;80.74;102939.84;5032250;28;20376;-41
2021/09/22 02:08:21;;;;;;;22.13;16.63;;;;;;;12.45;80.72;102943.72;5024310;28;20048;-41
2021/09/22 02:10:47;;;;;;;24.50;17.45;;;;;;;12.44;81.15;102941.16;4994956;28;20392;-41
2021/09/22 02:13:12;;;;;;;25.58;18.00;;;;;;;12.40;80.89;102932.50;5012578;28;20045;-41
2021/09/22 02:15:38;;;;;;;24.30;18.58;;;;;;;12.40;80.84;102927.09;5012599;28;20132;-41
2021/09/22 02:18:03;;;;;;;23.88;18.15;;;;;;;12.38;80.92;102912.88;5024932;28;20484;-41
2021/09/22 02:20:29;;;;;;;28.75;19.50;;;;;;;12.38;81.20;102912.88;5020585;28;20083;-42
2021/09/22 02:22:54;;;;;;;27.63;18.35;;;;;;;12.40;81.12;102910.91;5028001;28;20043;-41
2021/09/22 02:25:20;;;;;;;25.63;18.17;;;;;;;12.41;80.98;102911.75;5031976;28;20136;-41
2021/09/22 02:27:45;;;;;;;24.58;18.73;;;;;;;12.40;81.20;102908.19;5020824;28;20065;-41
2021/09/22 02:30:14;;;;;;;26.38;19.58;;;;;;;12.39;81.26;102911.88;5013463;28;20033;-41
2021/09/22 02:32:40;;;;;;;25.13;19.65;;;;;;;12.39;81.44;102911.88;5031403;28;20028;-42
2021/09/22 02:35:07;;;;;;;24.85;18.17;;;;;;;12.38;81.13;102907.47;5037573;28;20453;-41
2021/09/22 02:37:33;;;;;;;24.92;19.83;;;;;;;12.37;81.35;102903.06;5031415;28;20044;-41
2021/09/22 02:39:59;;;;;;;25.98;18.98;;;;;;;12.38;81.06;102899.38;5032015;28;20033;-40
2021/09/22 02:42:24;;;;;;;23.83;18.92;;;;;;;12.37;81.20;102905.75;5031925;28;20036;-42
2021/09/22 02:44:50;;;;;;;26.48;20.25;;;;;;;12.36;81.51;102904.06;5030179;28;20059;-42
2021/09/22 02:47:15;;;;;;;27.70;19.70;;;;;;;12.37;81.82;102908.47;5030108;28;20456;-41
2021/09/22 02:49:42;;;;;;;26.25;19.77;;;;;;;12.39;81.36;102903.78;5031709;28;20036;-41
2021/09/22 02:52:08;;;;;;;22.48;19.17;;;;;;;12.39;81.42;102906.47;5026285;28;20029;-42
2021/09/22 02:54:33;;;;;;;30.85;22.13;;;;;;;12.41;82.09;102912.59;5030576;28;20036;-42
2021/09/22 02:56:59;;;;;;;30.48;22.35;;;;;;;12.45;82.66;102905.03;5031761;28;20056;-41
2021/09/22 02:59:24;;;;;;;27.50;19.77;;;;;;;12.45;81.93;102897.81;5031729;28;20099;-41
2021/09/22 03:01:49;;;;;;;28.52;20.40;;;;;;;12.46;81.79;102904.91;5028545;28;20136;-42
2021/09/22 03:04:15;;;;;;;30.65;22.90;;;;;;;12.47;82.56;102903.91;5012086;28;20109;-42
2021/09/22 03:06:40;;;;;;;30.55;21.52;;;;;;;12.45;82.19;102895.13;5011922;28;20018;-40
2021/09/22 03:09:06;;;;;;;28.73;21.88;;;;;;;12.45;82.35;102903.22;5011960;28;20500;-41
2021/09/22 03:11:31;;;;;;;29.23;22.42;;;;;;;12.44;82.37;102888.00;5012138;28;20041;-41
2021/09/22 03:13:56;;;;;;;32.75;23.05;;;;;;;12.45;82.60;102887.03;5029806;28;20034;-41
2021/09/22 03:16:22;;;;;;;30.77;22.92;;;;;;;12.48;82.86;102884.03;5031553;28;20536;-42
2021/09/22 03:18:47;;;;;;;31.77;23.10;;;;;;;12.50;82.62;102889.25;5031836;28;20624;-41
2021/09/22 03:21:13;;;;;;;27.25;20.60;;;;;;;12.48;82.60;102881.31;5031254;28;20546;-41
2021/09/22 03:23:39;;;;;;;29.55;21.67;;;;;;;12.46;82.12;102875.22;5015461;28;20080;-42
2021/09/22 03:26:05;;;;;;;27.00;21.33;;;;;;;12.44;82.01;102884.44;5031225;28;20500;-41
2021/09/22 03:28:30;;;;;;;29.70;21.08;;;;;;;12.42;82.11;102876.47;5031549;28;20036;-41
2021/09/22 03:30:56;;;;;;;29.90;22.90;;;;;;;12.39;82.30;102875.91;5028573;28;20037;-42
2021/09/22 03:33:21;;;;;;;31.58;24.38;;;;;;;12.34;82.75;102868.25;5019999;28;20037;-41
2021/09/22 03:35:47;;;;;;;31.38;23.38;;;;;;;12.32;82.52;102878.34;5015304;28;20497;-41
2021/09/22 03:38:12;;;;;;;28.48;21.13;;;;;;;12.28;82.08;102885.03;5015343;28;20030;-41
2021/09/22 03:40:38;;;;;;;26.52;21.00;;;;;;;12.21;82.33;102873.94;5021249;28;20036;-42
2021/09/22 03:43:03;;;;;;;29.15;22.50;;;;;;;12.23;82.69;102871.09;5023892;28;20129;-42
2021/09/22 03:45:29;;;;;;;27.80;21.52;;;;;;;12.22;82.50;102864.03;5014966;28;20021;-40
2021/09/22 03:47:54;;;;;;;28.60;21.60;;;;;;;12.19;82.44;102865.16;5013632;28;20121;-41
2021/09/22 03:50:20;;;;;;;28.58;21.77;;;;;;;12.16;82.30;102861.88;5016558;28;20388;-42
2021/09/22 03:52:45;;;;;;;26.13;21.40;;;;;;;12.15;82.55;102857.47;5026690;28;20025;-41
2021/09/22 03:55:10;;;;;;;28.92;22.05;;;;;;;12.16;82.48;102859.16;5015106;28;20022;-41
2021/09/22 03:57:36;;;;;;;31.58;23.40;;;;;;;12.18;83.13;102867.97;5015085;28;20500;-41
2021/09/22 04:00:03;;;;;;;27.77;20.08;;;;;;;12.16;82.64;102864.56;5015191;28;20095;-41
2021/09/22 04:02:28;;;;;;;29.67;22.00;;;;;;;12.19;82.82;102864.28;5020530;28;20131;-41
2021/09/22 04:04:53;;;;;;;28.75;21.52;;;;;;;12.22;82.89;102872.13;5034517;28;20064;-41
2021/09/22 04:07:19;;;;;;;27.55;21.48;;;;;;;12.24;83.04;102870.09;5034481;28;20091;-41
2021/09/22 04:09:44;;;;;;;33.03;21.73;;;;;;;12.23;82.58;102869.25;5034122;28;20103;-41
2021/09/22 04:12:09;;;;;;;32.30;22.70;;;;;;;12.24;82.82;102875.50;5029254;28;20109;-42
2021/09/22 04:14:35;;;;;;;32.20;22.48;;;;;;;12.22;82.73;102869.41;5031449;28;20032;-42
2021/09/22 04:17:00;;;;;;;33.13;21.65;;;;;;;12.22;82.53;102869.41;5014442;28;20041;-40
2021/09/22 04:19:25;;;;;;;27.85;21.67;;;;;;;12.22;82.55;102874.81;5014486;28;20446;-41
2021/09/22 04:21:51;;;;;;;29.15;21.60;;;;;;;12.18;82.46;102874.22;5017762;28;20033;-42
2021/09/22 04:24:16;;;;;;;26.75;21.33;;;;;;;12.16;82.48;102861.88;5024586;28;20026;-42
2021/09/22 04:26:42;;;;;;;28.65;21.27;;;;;;;12.17;82.68;102866.28;5033797;28;20061;-42
2021/09/22 04:29:07;;;;;;;27.80;22.30;;;;;;;12.14;82.60;102867.44;5033939;28;20037;-41
2021/09/22 04:31:32;;;;;;;27.00;21.73;;;;;;;12.12;82.31;102871.25;5021952;28;20034;-41
2021/09/22 04:33:58;;;;;;;27.98;21.52;;;;;;;12.12;82.59;102863.16;5023213;28;20080;-42
2021/09/22 04:36:25;;;;;;;27.73;21.55;;;;;;;12.13;82.85;102864.84;5014097;28;20503;-41
2021/09/22 04:38:50;;;;;;;25.40;20.48;;;;;;;12.16;82.74;102870.81;5014227;28;20547;-41
2021/09/22 04:41:15;;;;;;;29.10;20.92;;;;;;;12.20;82.81;102871.41;5018814;28;20135;-41
2021/09/22 04:43:41;;;;;;;26.25;20.58;;;;;;;12.20;82.89;102872.25;5019022;28;20037;-41
2021/09/22 04:46:08;;;;;;;23.40;18.95;;;;;;;12.16;82.32;102869.97;5014259;28;20388;-41
2021/09/22 04:48:33;;;;;;;26.27;20.33;;;;;;;12.13;82.50;102867.56;5032185;28;20031;-41
2021/09/22 04:50:58;;;;;;;24.33;19.33;;;;;;;12.17;82.57;102877.09;5033168;28;20470;-41
2021/09/22 04:53:24;;;;;;;27.48;19.02;;;;;;;12.20;82.31;102871.41;5015468;28;20528;-41
2021/09/22 04:55:49;;;;;;;23.58;18.58;;;;;;;12.23;81.89;102871.09;5026867;28;20451;-41
2021/09/22 04:58:15;;;;;;;26.00;18.98;;;;;;;12.26;81.55;102878.91;5016174;28;20057;-41
2021/09/22 05:00:40;;;;;;;26.50;18.95;;;;;;;12.27;81.49;102880.63;5027376;28;20395;-40
2021/09/22 05:03:05;;;;;;;27.05;19.63;;;;;;;12.25;81.74;102879.94;5015778;28;20105;-41
2021/09/22 05:05:31;;;;;;;27.13;20.02;;;;;;;12.25;81.76;102885.31;5016266;28;20032;-41
2021/09/22 05:07:59;;;;;;;21.33;17.63;;;;;;;12.25;81.24;102888.03;5013970;28;20065;-41
2021/09/22 05:10:25;;;;;;;22.25;17.30;;;;;;;12.26;81.35;102893.25;5012603;28;20034;-41
2021/09/22 05:12:50;;;;;;;21.30;17.52;;;;;;;12.28;80.99;102893.13;5021086;28;20472;-41
2021/09/22 05:15:15;;;;;;;18.13;15.60;;;;;;;12.27;80.84;102886.88;5018962;28;20034;-41
2021/09/22 05:17:41;;;;;;;26.08;18.13;;;;;;;12.26;81.08;102884.31;5024522;28;20030;-41
2021/09/22 05:20:06;;;;;;;20.33;16.10;;;;;;;12.22;80.87;102888.31;5025417;28;20492;-41
2021/09/22 05:22:32;;;;;;;20.75;15.85;;;;;;;12.23;80.88;102892.72;5018113;28;20033;-42
2021/09/22 05:24:58;;;;;;;20.92;16.13;;;;;;;12.23;80.85;102881.91;5031610;28;20344;-40
2021/09/22 05:27:24;;;;;;;22.63;16.15;;;;;;;12.20;80.63;102883.03;5013671;28;20030;-41
2021/09/22 05:29:49;;;;;;;20.85;15.70;;;;;;;12.21;80.83;102881.19;5028383;28;20039;-40
2021/09/22 05:32:14;;;;;;;23.83;16.73;;;;;;;12.19;80.71;102875.06;5023354;28;20057;-41
2021/09/22 05:34:40;;;;;;;18.63;15.20;;;;;;;12.21;80.86;102881.19;5034722;28;20025;-43
2021/09/22 05:37:05;;;;;;;20.17;16.30;;;;;;;12.21;80.92;102873.09;5045548;28;20021;-43
2021/09/22 05:39:30;;;;;;;22.63;16.73;;;;;;;12.22;81.03;102880.22;5027404;28;20022;-40
2021/09/22 05:41:56;;;;;;;23.58;16.83;;;;;;;12.21;81.10;102879.34;5023899;28;20029;-42
2021/09/22 05:44:21;;;;;;;23.90;16.40;;;;;;;12.26;81.06;102871.66;5017938;28;20429;-41
2021/09/22 05:46:46;;;;;;;20.88;16.13;;;;;;;12.29;80.93;102881.31;5018846;28;20623;-44
2021/09/22 05:49:12;;;;;;;23.05;16.30;;;;;;;12.30;80.99;102878.50;5017379;28;20484;-40
2021/09/22 05:51:37;;;;;;;25.83;17.42;;;;;;;12.36;80.96;102882.47;5025782;28;20041;-41
2021/09/22 05:54:02;;;;;;;23.85;16.70;;;;;;;12.40;80.73;102892.00;5025887;28;20515;-41
2021/09/22 05:56:28;;;;;;;22.13;15.57;;;;;;;12.44;80.64;102888.00;5013331;28;20064;-42
2021/09/22 05:58:53;;;;;;;28.48;16.10;;;;;;;12.50;80.42;102883.84;5022156;28;20022;-42
2021/09/22 06:01:18;;;;;;;20.30;16.80;;;;;;;12.53;80.38;102886.25;5016643;28;20068;-42
2021/09/22 06:03:44;;;;;;;21.77;16.55;;;;;;;12.58;80.57;102893.94;5014760;28;20492;-41
2021/09/22 06:06:09;;;;;;;23.65;16.80;;;;;;;12.60;80.24;102889.25;5015896;28;20026;-41
2021/09/22 06:08:35;;;;;;;21.92;16.17;;;;;;;12.63;80.62;102897.06;5012252;28;20585;-42
2021/09/22 06:11:01;;;;;;;24.77;17.83;;;;;;;12.66;80.49;102894.91;5021265;28;20388;-42
2021/09/22 06:13:27;;;;;;;29.48;18.30;;;;;;;12.74;80.38;102886.06;5017210;28;20500;-42
2021/09/22 06:15:53;;;;;;;26.05;18.45;;;;;;;12.81;80.33;102887.22;5011693;28;20029;-42
2021/09/22 06:18:18;;;;;;;26.77;18.95;;;;;;;12.88;80.20;102882.94;5023193;28;20046;-42
2021/09/22 06:20:43;;;;;;;27.55;18.20;;;;;;;12.96;79.99;102874.09;5019386;28;20033;-42
2021/09/22 06:23:09;;;;;;;30.40;19.17;;;;;;;13.07;79.85;102875.75;5018731;28;20026;-42
2021/09/22 06:25:36;;;;;;;25.05;18.73;;;;;;;13.16;79.67;102881.13;5012013;28;20072;-43
2021/09/22 06:28:01;;;;;;;23.70;18.75;;;;;;;13.18;79.27;102873.69;5019042;28;20033;-41
2021/09/22 06:30:27;;;;;;;26.25;19.25;;;;;;;13.23;79.46;102883.22;5025727;28;20037;-43
2021/09/22 06:32:52;;;;;;;27.55;19.40;;;;;;;13.26;79.16;102885.63;5025693;28;20040;-42
2021/09/22 06:35:18;;;;;;;23.63;19.77;;;;;;;13.32;79.26;102890.44;5012070;28;20030;-41
2021/09/22 06:37:48;;;;;;;26.45;18.60;;;;;;;13.42;78.78;102887.69;5003964;28;20435;-42
2021/09/22 06:40:13;;;;;;;35.80;21.42;;;;;;;13.58;78.65;102885.19;5022706;28;20040;-41
2021/09/22 06:42:39;;;;;;;30.65;19.95;;;;;;;13.66;77.89;102889.84;5020450;28;20026;-42
2021/09/22 06:45:04;;;;;;;26.23;18.50;;;;;;;13.76;77.54;102883.34;5024441;28;20057;-41
2021/09/22 06:47:30;;;;;;;27.38;19.50;;;;;;;13.95;77.48;102886.91;5026327;28;20049;-41
2021/09/22 06:49:56;;;;;;;24.33;18.92;;;;;;;14.03;76.92;102890.59;5026673;28;20026;-42
2021/09/22 06:52:22;;;;;;;28.25;19.52;;;;;;;14.22;76.50;102891.44;5028106;28;20381;-41
2021/09/22 06:54:47;;;;;;;23.77;18.55;;;;;;;14.50;75.99;102889.44;5022268;28;20060;-41
2021/09/22 06:57:12;;;;;;;25.27;19.10;;;;;;;14.61;74.79;102896.47;5028821;28;20384;-41
2021/09/22 06:59:38;;;;;;;26.52;19.05;;;;;;;14.75;74.21;102893.22;5030369;28;20187;-41
2021/09/22 07:02:03;;;;;;;29.02;18.73;;;;;;;14.85;74.01;102885.81;5024933;28;20104;-42
2021/09/22 07:04:28;;;;;;;25.55;18.10;;;;;;;14.82;74.00;102891.53;5031226;28;20025;-41
2021/09/22 07:06:53;;;;;;;26.35;17.90;;;;;;;15.07;73.70;102889.84;5030521;28;20371;-41
2021/09/22 07:09:19;;;;;;;26.30;17.38;;;;;;;15.23;72.96;102899.06;5034650;28;20030;-42
2021/09/22 07:11:44;;;;;;;24.23;17.13;;;;;;;15.50;72.69;102901.53;5029330;28;20436;-41
2021/09/22 07:14:09;;;;;;;18.85;16.42;;;;;;;15.77;72.22;102913.19;5028630;28;20457;-41
2021/09/22 07:16:35;;;;;;;21.35;16.55;;;;;;;15.88;70.49;102907.47;5031081;28;20022;-41
2021/09/22 07:19:00;;;;;;;21.75;16.42;;;;;;;16.34;69.92;102902.41;5032843;28;20040;-42
2021/09/22 07:21:26;;;;;;;22.70;15.73;;;;;;;16.83;67.37;102909.69;5033081;28;20049;-42
2021/09/22 07:23:51;;;;;;;28.00;15.77;;;;;;;16.99;66.97;102912.38;5034010;28;20025;-41
2021/09/22 07:26:17;;;;;;;22.13;15.70;;;;;;;17.18;66.09;102905.69;5032123;28;20132;-43
2021/09/22 07:28:42;;;;;;;19.15;14.90;;;;;;;17.32;65.41;102914.97;5033239;28;20033;-43
2021/09/22 07:31:08;;;;;;;21.73;14.50;;;;;;;17.62;64.88;102918.78;5033064;28;20064;-42
2021/09/22 07:33:33;;;;;;;21.38;14.27;;;;;;;18.01;63.74;102908.84;5030989;28;20437;-42
2021/09/22 07:35:59;;;;;;;18.98;13.52;;;;;;;18.42;62.40;102901.22;5024715;28;20031;-43
2021/09/22 07:38:26;;;;;;;17.85;14.30;;;;;;;18.73;61.61;102909.28;5021732;28;20025;-42
2021/09/22 07:40:51;;;;;;;22.33;14.38;;;;;;;18.81;60.49;102903.75;5028275;28;20034;-44
2021/09/22 07:43:17;;;;;;;20.75;13.90;;;;;;;19.12;60.05;102910.09;5032378;28;20025;-42
2021/09/22 07:45:42;;;;;;;16.60;13.98;;;;;;;19.13;60.29;102906.31;5033434;28;20029;-42
2021/09/22 07:48:08;;;;;;;15.80;13.40;;;;;;;19.58;58.56;102910.69;5029174;28;20392;-42
2021/09/22 07:50:34;;;;;;;19.00;13.63;;;;;;;19.22;59.10;102902.44;5030186;28;20038;-41
2021/09/22 07:52:59;;;;;;;16.58;13.27;;;;;;;19.35;59.57;102901.78;5028171;28;20098;-42
2021/09/22 07:55:24;;;;;;;17.25;13.60;;;;;;;19.18;59.99;102901.13;5033389;28;20369;-41
2021/09/22 07:57:54;;;;;;;16.02;13.18;;;;;;;18.93;60.60;102898.72;5030292;28;20080;-41
2021/09/22 08:00:22;;;;;;;18.75;12.73;;;;;;;19.41;60.21;102893.69;5030524;28;20029;-42
2021/09/22 08:02:48;;;;;;;18.42;13.40;;;;;;;19.57;58.55;102891.78;5032183;28;20039;-42
2021/09/22 08:05:14;;;;;;;17.73;12.70;;;;;;;19.90;57.98;102887.53;5032932;28;20033;-41
2021/09/22 08:07:39;;;;;;;14.55;12.57;;;;;;;19.89;58.39;102882.28;5030918;28;20033;-40
2021/09/22 08:10:05;;;;;;;17.77;12.18;;;;;;;19.55;59.07;102886.47;5028466;28;20056;-41
2021/09/22 08:12:31;;;;;;;19.88;12.00;;;;;;;20.09;57.95;102887.91;5031348;28;20123;-41
2021/09/22 08:14:57;;;;;;;13.13;11.68;;;;;;;19.90;58.56;102884.78;5032986;28;20141;-41
2021/09/22 08:17:22;;;;;;;13.52;12.00;;;;;;;19.96;58.31;102885.94;5026780;28;20061;-43
2021/09/22 08:19:48;;;;;;;13.20;11.52;;;;;;;19.93;58.72;102889.91;5029238;28;20037;-43
2021/09/22 08:22:13;;;;;;;13.07;11.30;;;;;;;20.35;57.67;102888.19;5008694;28;20049;-44
2021/09/22 08:24:39;;;;;;;17.17;12.10;;;;;;;19.60;58.67;102888.66;5029565;28;20538;-42
2021/09/22 08:27:04;;;;;;;14.45;11.18;;;;;;;19.81;58.84;102875.03;5022416;28;20448;-40
2021/09/22 08:29:32;;;;;;;17.05;12.05;;;;;;;19.60;59.34;102881.28;5030749;28;20049;-41
2021/09/22 08:31:57;;;;;;;15.38;11.27;;;;;;;20.15;58.68;102885.25;5031065;28;20091;-42
2021/09/22 08:34:23;;;;;;;12.40;10.57;;;;;;;20.74;56.26;102886.81;5030415;28;20037;-42
2021/09/22 08:36:48;;;;;;;12.55;10.52;;;;;;;21.00;56.46;102888.03;5028247;28;20022;-41
2021/09/22 08:39:14;;;;;;;11.07;9.02;;;;;;;21.59;54.15;102892.97;5028509;28;20064;-42
2021/09/22 08:41:40;;;;;;;13.80;8.90;;;;;;;21.68;53.96;102889.00;5027009;28;20087;-41
2021/09/22 08:44:07;;;;;;;13.35;9.73;;;;;;;21.89;53.00;102884.41;5031306;28;20084;-43
2021/09/22 08:46:33;;;;;;;10.55;9.40;;;;;;;21.99;53.56;102900.47;5025790;28;20507;-41
2021/09/22 08:49:04;;;;;;;12.07;9.18;;;;;;;21.89;53.55;102887.16;5029925;28;20071;-44
2021/09/22 08:51:30;;;;;;;13.75;9.18;;;;;;;22.09;53.31;102890.78;5032736;28;20030;-43
2021/09/22 08:53:55;;;;;;;13.35;9.88;;;;;;;21.81;54.36;102892.81;5031310;28;20025;-41
2021/09/22 08:56:21;;;;;;;13.10;9.35;;;;;;;21.87;53.94;102889.25;5030860;28;20029;-41
2021/09/22 08:58:47;;;;;;;29.80;10.05;;;;;;;22.20;53.46;102888.50;5032459;28;20473;-42
2021/09/22 09:01:19;;;;;;;55.20;11.57;;;;;;;22.70;52.57;102902.63;5030773;28;20038;-42
2021/09/22 09:03:45;;;;;;;17.17;9.13;;;;;;;22.46;51.34;102896.72;5026146;28;20030;-43
2021/09/22 09:06:16;;;;;;;23.88;9.88;;;;;;;22.16;52.59;102900.91;5031398;28;21761;-43
2021/09/22 09:08:41;;;;;;;12.43;9.38;;;;;;;21.54;53.78;102909.19;5032217;28;20112;-42
2021/09/22 09:11:07;;;;;;;17.77;9.35;;;;;;;21.21;55.14;102903.53;5031916;28;20029;-40
2021/09/22 09:13:48;;;;;;;17.27;9.50;;;;;;;21.01;57.01;102903.41;5028708;28;20061;-41
2021/09/22 09:16:17;;;;;;;19.05;9.82;;;;;;;20.53;56.70;102895.88;5030962;28;20026;-42
2021/09/22 09:18:45;;;;;;;11.95;9.68;;;;;;;20.09;58.26;102893.38;5030808;28;20029;-41
2021/09/22 09:21:10;;;;;;;15.30;9.32;;;;;;;19.83;59.29;102886.63;5031581;28;20029;-41
2021/09/22 09:23:35;;;;;;;15.73;9.45;;;;;;;19.68;59.88;102902.22;5031073;28;20550;-42
2021/09/22 09:26:03;;;;;;;13.05;9.27;;;;;;;19.73;60.77;102888.84;5029600;28;20049;-41
2021/09/22 09:28:31;;;;;;;13.68;9.60;;;;;;;19.71;59.75;102896.38;5031988;28;20018;-41
2021/09/22 09:30:58;;;;;;;;;;;;;;;19.64;60.87;102879.00;5029308;28;20362;-41
2021/09/22 09:33:42;;;;;;;15.40;9.45;;;;;;;19.69;60.80;102876.59;5032148;28;19913;-42
2021/09/22 09:36:13;;;;;;;16.17;10.02;;;;;;;19.85;60.26;102870.03;5027761;28;20481;-42
2021/09/22 09:38:39;;;;;;;15.30;9.27;;;;;;;19.51;60.17;102875.09;5023423;28;20024;-41
2021/09/22 09:41:04;;;;;;;14.05;9.05;;;;;;;19.53;60.60;102873.00;5023580;28;20022;-42
2021/09/22 09:43:29;;;;;;;13.43;8.20;;;;;;;19.68;60.43;102880.38;5025346;28;20041;-41
2021/09/22 09:45:55;;;;;;;11.43;8.63;;;;;;;19.71;58.93;102875.34;5023298;28;20072;-43
2021/09/22 09:48:20;;;;;;;12.52;8.35;;;;;;;19.71;60.40;102874.50;5025748;28;20076;-41
2021/09/22 09:50:59;;;;;;;14.07;9.20;;;;;;;19.56;59.96;102873.66;5023563;28;20096;-41
2021/09/22 09:53:31;;;;;;;9.75;7.90;;;;;;;19.65;60.48;102864.34;5026047;28;20033;-42
2021/09/22 09:56:00;;;;;;;10.70;8.65;;;;;;;19.56;60.68;102871.78;5029589;28;20388;-42
2021/09/22 09:58:39;;;;;;;13.63;8.68;;;;;;;19.62;60.39;102870.19;5026503;28;20025;-40
2021/09/22 10:01:04;;;;;;;15.20;8.18;;;;;;;19.63;60.72;102863.69;5026572;28;20029;-41
2021/09/22 10:03:30;;;;;;;12.82;7.85;;;;;;;19.81;60.84;102872.31;5030895;28;20392;-41
2021/09/22 10:05:57;;;;;;;11.02;7.07;;;;;;;19.97;59.89;102868.47;5029989;28;20025;-41
2021/09/22 10:08:23;;;;;;;;;;;;;;;20.30;58.70;102863.31;5027667;28;20159;-42
2021/09/22 10:10:51;;;;;;;8.77;6.63;;;;;;;20.25;58.50;102865.81;5031028;28;19999;-41
2021/09/22 10:13:16;;;;;;;;;;;;;;;20.32;58.27;102863.94;5024858;28;20391;-41
2021/09/22 10:15:44;;;;;;;10.55;7.28;;;;;;;20.03;57.93;102870.41;5028959;28;20003;-43
2021/09/22 10:18:10;;;;;;;10.80;6.53;;;;;;;19.62;59.06;102872.91;5030661;28;20112;-41
2021/09/22 10:20:41;;;;;;;8.57;6.50;;;;;;;19.63;59.71;102871.88;5030927;28;20037;-41
2021/09/22 10:23:08;;;;;;;9.80;5.80;;;;;;;19.74;58.55;102868.66;5027891;28;20167;-42
2021/09/22 10:25:34;;;;;;;10.15;6.20;;;;;;;19.87;58.83;102868.78;5022055;28;20049;-42
2021/09/22 10:28:00;;;;;;;8.80;6.15;;;;;;;19.89;58.06;102871.34;5024091;28;20083;-41
2021/09/22 10:30:51;;;;;;;9.65;6.35;;;;;;;19.92;57.79;102869.06;5024198;28;20033;-42
2021/09/22 10:33:32;;;;;;;12.93;6.07;;;;;;;20.07;58.01;102860.81;5020038;28;20050;-42
2021/09/22 10:36:00;;;;;;;7.30;5.80;;;;;;;20.14;57.39;102858.09;5027784;28;20080;-42
2021/09/22 10:38:28;;;;;;;14.45;6.50;;;;;;;20.17;57.55;102853.13;5024599;28;20060;-41
2021/09/22 10:40:59;;;;;;;11.07;6.65;;;;;;;20.21;57.94;102848.09;5026153;28;20392;-42
2021/09/22 10:43:25;;;;;;;9.73;6.45;;;;;;;20.09;57.78;102841.44;5029289;28;20040;-42
2021/09/22 10:46:05;;;;;;;11.48;6.50;;;;;;;20.04;58.65;102852.16;5034433;28;20047;-42
2021/09/22 10:48:33;;;;;;;10.95;6.25;;;;;;;19.65;58.34;102853.41;5034507;28;20026;-41
2021/09/22 10:51:04;;;;;;;;;;;;;;;19.56;59.58;102843.63;5027552;28;20065;-41
2021/09/22 10:53:32;;;;;;;11.32;6.47;;;;;;;19.53;59.93;102839.41;5032302;28;19913;-42
2021/09/22 10:56:08;;;;;;;8.68;5.43;;;;;;;19.71;59.95;102834.38;5031958;28;20317;-41
2021/09/22 10:58:51;;;;;;;9.85;6.50;;;;;;;19.67;59.48;102830.34;5024134;28;20528;-42
2021/09/22 11:01:32;;;;;;;12.25;5.60;;;;;;;19.89;59.18;102822.16;5028921;28;20033;-42
2021/09/22 11:04:08;;;;;;;7.63;5.90;;;;;;;19.94;59.40;102826.00;5030232;28;20029;-41
2021/09/22 11:06:43;;;;;;;11.82;5.20;;;;;;;19.94;57.58;102820.53;5030074;28;20109;-42
2021/09/22 11:09:30;;;;;;;14.30;5.40;;;;;;;19.77;57.09;102824.53;5025354;28;20030;-41